x

Half Moon Bay - 24nm Ssw Of San Francisco, Ca (46012) Wave Buoy

5:50pm - Fri 24th Feb 2017 All times are PST. -8 hours from GMT.

  • Sig Wave height 5.9ft
  • Swell Direction
  • Peak Period 10s
  • Average Period 8s
  • Wind
    4mph, 7mph gusts
  • Sea Temp 55°f
  • Air Temp 49°f
  • Sea Pressure 1023.5mb
  • Half Moon Bay - 24nm Ssw Of San Francisco, Ca
  • Half Moon Bay - 24nm Ssw Of San Francisco, Ca

More Historic Weather Station data

Upgrade to MSW Pro to gain access to the past 30 days of data for over 8000 Wavebouys and Weather Stations around the globe.

Join Pro

Comparision Forecast

View Surf forecast
   
Fri 02/24 5:50pm 6ft 10s 8s 4 7 mph 1023.5mb 55f 49f
4:50pm 5ft 16s 7s 7 9 mph 1023.6mb 55f 50f
3:50pm 6.5ft 16s 8s 2 4 mph 1024mb 55f 50f
2:50pm 6ft 10s 7s 16 18 mph 1024.2mb 55f 49f
1:50pm 6.5ft 17s 7s 9 13 mph 1024.5mb 55f 50f
12:50pm 7ft 16s 7s 7 9 mph 1024.9mb 54f 49f
11:50am 7ft 10s 7s 11 16 mph 1025.3mb 54f 50f
10:50am 7ft 8s 7s 13 16 mph 1025.2mb 54f 50f
9:50am 7.5ft 9s 7s 13 18 mph 1024.8mb 54f 50f
8:50am 7.5ft 10s 7s 13 18 mph 1024.6mb 54f 50f
7:50am 7ft 8s 7s 13 16 mph 1024.2mb 54f 50f
6:50am 7ft 9s 7s 13 16 mph 1023.6mb 54f 49f
5:50am 7ft 8s 7s 16 18 mph 1023.5mb 54f 49f
4:50am 7ft 11s 7s 16 20 mph 1023.3mb 54f 50f
3:50am 7ft 8s 7s 16 20 mph 1022.8mb 54f 50f
2:50am 7ft 9s 6s 16 20 mph 1023.1mb 54f 50f
1:50am 7ft 8s 7s 18 25 mph 1023.9mb 54f 50f
12:50am 7.5ft 9s 6s 18 22 mph 1024.2mb 54f 50f
Thu 02/23 11:50pm 8ft 8s 6s 18 22 mph 1023.7mb 55f 50f
10:50pm 8ft 10s 6s 20 25 mph 1023.4mb 55f 50f
9:50pm 8.5ft 8s 7s 20 25 mph 1023mb 55f 50f
8:50pm 8ft 11s 7s 18 22 mph 1023mb 55f 50f
7:50pm 8ft 8s 6s 20 25 mph 1022.6mb 55f 50f
6:50pm 8ft 8s 6s 20 27 mph 1022.7mb 55f 50f
5:50pm 9ft 9s 7s 20 25 mph 1022.5mb 55f 50f
4:50pm 8ft 8s 7s 20 25 mph 1022.6mb 55f 50f
3:50pm 9ft 11s 7s 20 25 mph 1022.9mb 55f 50f
2:50pm 9ft 8s 7s 22 27 mph 1022.7mb 55f 49f
1:50pm 8.5ft 7s 6s 20 27 mph 1023mb 55f 49f
12:50pm 8ft 8s 7s 20 25 mph 1023.5mb 55f 49f
11:50am 9ft 8s 7s 22 29 mph 1023.9mb 55f 49f
10:50am 8.5ft 8s 7s 22 27 mph 1023.9mb 55f 49f
9:50am 8.5ft 8s 6s 22 27 mph 1023.9mb 55f 49f
8:50am 8ft 13s 7s 25 29 mph 1023.8mb 55f 49f
7:50am 8ft 8s 7s 22 29 mph 1023.3mb 55f 49f
6:50am 8.5ft 8s 7s 20 27 mph 1022.9mb 55f 48f
5:50am 9ft 13s 7s 20 25 mph 1022.7mb 55f 48f
4:50am 8.5ft 13s 7s 22 27 mph 1022.4mb 55f 49f
3:50am 9ft 8s 7s 25 29 mph 1022.2mb 55f 49f
2:50am 10ft 8s 7s 25 29 mph 1022.5mb 55f 49f
1:50am 10ft 12s 7s 22 29 mph 1023.1mb 55f 49f
12:50am 10ft 14s 7s 25 29 mph 1023.2mb 55f 49f
Wed 02/22 11:50pm 9.5ft 14s 7s 25 31 mph 1023.5mb 55f 49f
10:50pm 10.5ft 12s 7s 25 31 mph 1023.4mb 55f 49f
9:50pm 11ft 11s 7s 25 29 mph 1023.3mb 55f 51f
8:50pm 10ft 11s 7s 25 31 mph 1023.2mb 55f 50f
7:50pm 9.5ft 13s 7s 27 31 mph 1023mb 55f 50f
6:50pm 10.5ft 13s 7s 25 29 mph 1023.2mb 55f 51f
5:50pm 10.5ft 12s 8s 25 29 mph 1023.1mb 55f 51f
4:50pm 10ft 13s 8s 22 29 mph 1023.2mb 55f 52f
3:50pm 10ft 13s 8s 22 27 mph 1023.5mb 55f 52f
2:50pm 12ft 13s 9s 20 25 mph 1023.7mb 55f 52f
1:50pm 11ft 13s 9s 20 25 mph 1023.8mb 55f 52f
12:50pm 10ft 14s 9s 18 22 mph 1024.5mb 55f 52f
11:50am 10ft 14s 9s 16 20 mph 1025.2mb 55f 52f
10:50am 10ft 14s 9s 18 20 mph 1025.4mb 55f 52f
9:50am 10ft 14s 9s 18 20 mph 1025.4mb 55f 52f
8:50am 10.5ft 15s 9s 16 20 mph 1025.2mb 55f 51f
7:50am 10ft 15s 9s 18 22 mph 1024.6mb 55f 52f
6:50am 12ft 15s 10s 16 20 mph 1024.1mb 55f 52f
5:50am 10ft 15s 9s 16 20 mph 1024.1mb 55f 52f
4:50am 11ft 15s 9s 16 20 mph 1024.4mb 55f 52f
2:50am 12ft 16s 10s 16 20 mph 1024.3mb 55f 53f
1:50am 11.5ft 11s 9s 16 18 mph 1024.5mb 55f 53f
12:50am 12ft 16s 9s 16 20 mph 1024.7mb 55f 53f
Tue 02/21 11:50pm 11.5ft 16s 9s 13 18 mph 1024.3mb 55f 53f
10:50pm 11ft 11s 9s 13 18 mph 1024.2mb 55f 54f
9:50pm 10ft 11s 8s 16 18 mph 1024.1mb 55f 54f
8:50pm 10.5ft 11s 9s 13 20 mph 1023.8mb 55f 54f
7:50pm 9ft 11s 8s 13 18 mph 1023.2mb 56f 54f
6:50pm 10ft 11s 8s 11 13 mph 1022.7mb 56f 53f
5:50pm 10ft 11s 8s 11 18 mph 1022.2mb 56f 53f
4:50pm 10ft 12s 8s 7 9 mph 1022.1mb 56f 53f
3:50pm 10ft 11s 8s 7 11 mph 1021.9mb 56f 55f
2:50pm 9.5ft 10s 8s 11 13 mph 1022mb 56f 56f
1:50pm 10ft 11s 8s 11 13 mph 1022.3mb 56f 56f
12:50pm 9.5ft 11s 8s 9 11 mph 1022.7mb 56f 56f
11:50am 12ft 12s 9s 9 11 mph 1023.2mb 56f 56f
10:50am 12ft 11s 9s 9 11 mph 1023.2mb 55f 56f
9:50am 12ft 11s 9s 11 13 mph 1022.6mb 55f 55f
8:50am 11ft 11s 8s 11 16 mph 1022.1mb 55f 55f
7:50am 11ft 11s 8s 11 13 mph 1021.4mb 55f 54f
6:50am 12ft 11s 8s 9 11 mph 1021mb 55f 55f
5:50am 14.5ft 11s 9s 11 16 mph 1020.6mb 55f 56f
4:50am 14ft 11s 8s 13 18 mph 1019.9mb 55f 56f
3:50am 14ft 13s 8s 16 18 mph 1019.1mb 55f 56f
2:50am 14ft 11s 8s 20 22 mph 1018.6mb 55f 57f